Time;durP1;ratioP1;P1;durP2;ratioP2;P2;SDS_P1;SDS_P2;PMS_P1;PMS_P2;Temp;Humidity;BMP_temperature;BMP_pressure;BME280_temperature;BME280_humidity;BME280_pressure;Samples;Min_cycle;Max_cycle;Signal;HPM_P1;HPM_P2
2021/06/15 00:01:22;;;;;;;16.77;10.32;;;;;;;15.99;100.00;101937.75;5233181;28;20059;-82
2021/06/15 00:03:52;;;;;;;17.85;11.07;;;;;;;15.89;100.00;101940.66;5247378;28;20052;-82
2021/06/15 00:06:23;;;;;;;20.75;10.40;;;;;;;15.78;100.00;101936.47;5246763;28;20398;-82
2021/06/15 00:08:53;;;;;;;18.83;11.35;;;;;;;15.67;100.00;101944.13;5247310;28;20020;-82
2021/06/15 00:11:25;;;;;;;20.85;11.43;;;;;;;15.58;100.00;101940.56;5246809;28;20036;-82
2021/06/15 00:13:55;;;;;;;22.00;10.55;;;;;;;15.48;100.00;101940.75;5247261;28;20042;-82
2021/06/15 00:16:26;;;;;;;20.70;11.23;;;;;;;15.40;100.00;101940.75;5247704;28;20021;-82
2021/06/15 00:18:56;;;;;;;17.35;10.25;;;;;;;15.34;100.00;101930.63;5229672;28;20059;-82
2021/06/15 00:21:27;;;;;;;19.92;11.18;;;;;;;15.25;100.00;101937.88;5247897;28;20043;-82
2021/06/15 00:23:57;;;;;;;19.92;11.00;;;;;;;15.21;100.00;101927.56;5248371;28;20077;-82
2021/06/15 00:26:28;;;;;;;21.55;11.05;;;;;;;15.18;100.00;101928.78;5248382;28;20383;-82
2021/06/15 00:28:58;;;;;;;21.88;11.70;;;;;;;15.14;100.00;101927.44;5248164;28;20433;-81
2021/06/15 00:31:29;;;;;;;26.15;12.02;;;;;;;15.10;100.00;101920.66;5237337;28;20107;-82
2021/06/15 00:33:59;;;;;;;23.55;12.10;;;;;;;15.05;100.00;101930.31;5247836;28;20017;-82
2021/06/15 00:36:30;;;;;;;20.02;11.57;;;;;;;14.97;100.00;101928.47;5245793;28;20028;-82
2021/06/15 00:39:01;;;;;;;22.83;11.52;;;;;;;14.92;100.00;101928.13;5246561;28;20036;-82
2021/06/15 00:41:31;;;;;;;29.98;12.73;;;;;;;14.87;100.00;101933.19;5247066;28;20027;-82
2021/06/15 00:44:02;;;;;;;24.13;14.15;;;;;;;14.82;100.00;101930.97;5246192;28;20149;-82
2021/06/15 00:46:33;;;;;;;26.08;12.18;;;;;;;14.81;100.00;101937.41;5247151;28;20051;-82
2021/06/15 00:49:03;;;;;;;27.45;13.88;;;;;;;14.79;100.00;101927.75;5246759;28;20024;-82
2021/06/15 00:51:35;;;;;;;30.73;14.63;;;;;;;14.73;100.00;101932.81;5247185;28;20025;-82
2021/06/15 00:54:06;;;;;;;23.90;13.63;;;;;;;14.68;100.00;101927.06;5233484;28;20498;-82
2021/06/15 00:56:37;;;;;;;18.23;11.05;;;;;;;14.66;100.00;101934.50;5248374;28;20165;-82
2021/06/15 00:59:08;;;;;;;29.80;14.05;;;;;;;14.68;100.00;101927.06;5257043;28;20131;-82
2021/06/15 01:01:39;;;;;;;24.55;13.27;;;;;;;14.64;100.00;101925.72;5246390;28;20027;-82
2021/06/15 01:04:10;;;;;;;30.23;14.65;;;;;;;14.59;100.00;101929.94;5246388;28;20082;-82
2021/06/15 01:07:02;;;;;;;25.85;14.63;;;;;;;14.53;100.00;101938.72;5246358;28;20029;-82
2021/06/15 01:09:35;;;;;;;22.90;13.38;;;;;;;14.46;100.00;101933.09;5245971;28;20108;-82
2021/06/15 01:12:21;;;;;;;21.20;12.90;;;;;;;14.43;100.00;101936.13;5246320;28;20027;-82
2021/06/15 01:15:12;;;;;;;23.00;13.38;;;;;;;14.41;100.00;101938.16;5246085;28;20062;-82
2021/06/15 01:17:51;;;;;;;25.10;13.85;;;;;;;14.35;100.00;101939.63;5245905;28;20452;-82
2021/06/15 01:20:27;;;;;;;27.08;13.40;;;;;;;14.32;100.00;101948.06;5245667;28;20028;-82
2021/06/15 01:23:16;;;;;;;24.90;15.32;;;;;;;14.31;100.00;101945.50;5245779;28;20027;-82
2021/06/15 01:26:03;;;;;;;23.23;12.95;;;;;;;14.31;100.00;101953.59;5245073;28;20048;-82
2021/06/15 01:28:47;;;;;;;30.08;16.83;;;;;;;14.39;100.00;101957.19;5245472;28;20041;-81
2021/06/15 01:31:24;;;;;;;35.72;18.25;;;;;;;14.66;100.00;101955.25;5245241;28;20480;-81
2021/06/15 01:33:58;;;;;;;33.92;19.20;;;;;;;14.67;100.00;101960.50;5244948;28;20036;-82
2021/06/15 01:36:38;;;;;;;43.63;22.88;;;;;;;14.70;100.00;101962.84;5245036;28;20028;-82
2021/06/15 01:39:13;;;;;;;35.95;20.33;;;;;;;14.84;100.00;101964.06;5244685;28;20491;-82
2021/06/15 01:41:48;;;;;;;39.42;21.10;;;;;;;14.93;100.00;101965.78;5242329;28;20017;-82
2021/06/15 01:44:21;;;;;;;48.60;24.13;;;;;;;15.03;100.00;101965.59;5231876;28;20024;-82
2021/06/15 01:46:56;;;;;;;44.90;24.58;;;;;;;15.05;100.00;101963.56;5244798;28;20029;-82
2021/06/15 01:49:41;;;;;;;48.47;24.40;;;;;;;15.07;100.00;101956.16;5245349;28;20032;-82
2021/06/15 01:52:13;;;;;;;43.55;23.85;;;;;;;15.19;100.00;101965.59;5244832;28;20112;-82
2021/06/15 01:54:47;;;;;;;46.05;25.65;;;;;;;15.18;100.00;101972.03;5244249;28;20023;-82
2021/06/15 01:57:20;;;;;;;46.83;23.42;;;;;;;15.21;100.00;101974.41;5252523;28;20436;-82
2021/06/15 01:59:55;;;;;;;55.20;26.25;;;;;;;15.33;100.00;101972.19;5249580;28;20034;-82
2021/06/15 02:02:28;;;;;;;51.90;28.15;;;;;;;15.29;100.00;101968.97;5244632;28;20028;-82
2021/06/15 02:04:59;;;;;;;49.55;26.52;;;;;;;15.32;100.00;101972.38;5245621;28;20013;-82
2021/06/15 02:07:32;;;;;;;58.22;28.10;;;;;;;15.24;100.00;101959.69;5244736;28;20115;-82
2021/06/15 02:10:10;;;;;;;53.33;26.77;;;;;;;15.24;100.00;101974.06;5244532;28;20020;-82
2021/06/15 02:12:45;;;;;;;52.35;28.58;;;;;;;15.20;100.00;101977.25;5244558;28;20052;-82
2021/06/15 02:15:17;;;;;;;48.28;27.17;;;;;;;15.22;100.00;101962.56;5244543;28;20099;-82
2021/06/15 02:17:50;;;;;;;46.25;27.08;;;;;;;15.26;100.00;101969.34;5244006;28;20041;-82
2021/06/15 02:20:25;;;;;;;50.20;27.92;;;;;;;15.23;100.00;101975.06;5250238;28;20082;-82
2021/06/15 02:23:01;;;;;;;51.13;29.05;;;;;;;15.21;100.00;101970.81;5251395;28;20438;-82
2021/06/15 02:25:38;;;;;;;;;;;;;;;15.20;100.00;101971.84;5251857;28;20024;-82
2021/06/15 02:28:10;;;;;;;58.63;28.58;;;;;;;15.18;100.00;101971.19;5251403;28;19915;-82
2021/06/15 02:30:41;;;;;;;56.67;31.75;;;;;;;15.11;100.00;101976.44;5240920;28;20021;-82
2021/06/15 02:33:15;;;;;;;49.38;28.45;;;;;;;15.07;100.00;101977.78;5251321;28;20021;-82
2021/06/15 02:35:50;;;;;;;54.63;28.63;;;;;;;15.01;100.00;101976.59;5250269;28;20028;-82
2021/06/15 02:38:32;;;;;;;58.75;30.55;;;;;;;15.14;100.00;101981.47;5250845;28;20040;-82
2021/06/15 02:41:13;;;;;;;59.35;32.88;;;;;;;15.15;100.00;101990.44;5238336;28;20028;-82
2021/06/15 02:43:45;;;;;;;63.85;32.70;;;;;;;15.18;100.00;101987.41;5251503;28;20119;-82
2021/06/15 02:46:17;;;;;;;55.83;31.25;;;;;;;15.27;100.00;101984.53;5250708;28;20021;-82
2021/06/15 02:48:53;;;;;;;62.58;33.33;;;;;;;15.23;100.00;101985.03;5250934;28;20033;-82
2021/06/15 02:51:28;;;;;;;56.95;32.90;;;;;;;15.21;100.00;101981.63;5250891;28;20044;-82
2021/06/15 02:54:20;;;;;;;65.00;33.17;;;;;;;15.23;100.00;101988.59;5249660;28;20040;-82
2021/06/15 02:56:53;;;;;;;59.88;33.40;;;;;;;15.19;100.00;101989.94;5252488;28;20046;-82
2021/06/15 02:59:24;;;;;;;63.97;34.45;;;;;;;15.17;100.00;101985.72;5257810;28;20051;-82
2021/06/15 03:01:55;;;;;;;63.38;35.28;;;;;;;15.19;100.00;101987.22;5250005;28;20024;-82
2021/06/15 03:04:25;;;;;;;63.60;34.63;;;;;;;15.20;100.00;101988.91;5250687;28;20028;-82
2021/06/15 03:06:56;;;;;;;64.88;37.88;;;;;;;15.20;100.00;101986.22;5249247;28;20021;-81
2021/06/15 03:09:26;;;;;;;66.20;36.55;;;;;;;15.20;100.00;101982.66;5249031;28;20020;-82
2021/06/15 03:12:08;;;;;;;65.45;35.95;;;;;;;15.12;100.00;101982.69;5249285;28;20025;-81
2021/06/15 03:14:42;;;;;;;71.88;38.67;;;;;;;15.08;100.00;101976.75;5248567;28;20043;-82
2021/06/15 03:17:14;;;;;;;64.63;36.53;;;;;;;15.11;100.00;101967.44;5247102;28;20236;-82
2021/06/15 03:19:56;;;;;;;66.60;37.38;;;;;;;15.11;100.00;101976.44;5246910;28;20426;-82
2021/06/15 03:22:31;;;;;;;77.35;39.83;;;;;;;15.06;100.00;101981.50;5246118;28;20051;-82
2021/06/15 03:25:04;;;;;;;81.18;39.33;;;;;;;15.05;100.00;101987.06;5246799;28;20021;-82
2021/06/15 03:27:44;;;;;;;68.93;38.42;;;;;;;15.09;100.00;101991.13;5245896;28;20023;-82
2021/06/15 03:30:15;;;;;;;65.00;37.70;;;;;;;15.14;100.00;101999.56;5236963;28;20025;-82
2021/06/15 03:32:51;;;;;;;64.00;38.05;;;;;;;15.17;100.00;101994.69;5242975;28;20025;-82
2021/06/15 03:35:24;;;;;;;80.85;39.35;;;;;;;15.19;100.00;101991.78;5244350;28;20013;-82
2021/06/15 03:38:02;;;;;;;65.05;37.45;;;;;;;15.18;100.00;101995.50;5243915;28;20079;-82
2021/06/15 03:40:39;;;;;;;68.18;37.30;;;;;;;15.16;100.00;101989.41;5243998;28;20213;-82
2021/06/15 03:43:13;;;;;;;68.78;36.80;;;;;;;15.18;100.00;101984.69;5240605;28;20020;-82
2021/06/15 03:45:48;;;;;;;68.85;37.63;;;;;;;15.20;100.00;101986.22;5243550;28;20108;-82
2021/06/15 03:48:20;;;;;;;72.82;37.15;;;;;;;15.15;100.00;101985.88;5243730;28;20029;-82
2021/06/15 03:50:52;;;;;;;77.80;36.00;;;;;;;15.30;100.00;101977.94;5225385;28;20036;-82
2021/06/15 03:53:31;;;;;;;70.10;37.75;;;;;;;15.28;100.00;101972.69;5243514;28;20036;-82
2021/06/15 03:56:05;;;;;;;75.50;36.15;;;;;;;15.34;100.00;101989.25;5243447;28;20094;-82
2021/06/15 03:58:36;;;;;;;61.40;34.55;;;;;;;15.42;100.00;101983.84;5256687;28;20117;-82
2021/06/15 04:01:12;;;;;;;66.45;33.90;;;;;;;15.50;100.00;101979.25;5243249;28;20103;-82
2021/06/15 04:03:44;;;;;;;67.43;34.45;;;;;;;15.48;100.00;101975.06;5243195;28;20024;-82
2021/06/15 04:06:15;;;;;;;62.45;34.35;;;;;;;15.55;100.00;101970.63;5243049;28;20029;-82
2021/06/15 04:08:47;;;;;;;59.42;33.53;;;;;;;15.64;100.00;101975.06;5243297;28;20494;-81
2021/06/15 04:11:17;;;;;;;66.15;35.15;;;;;;;15.82;100.00;101979.44;5244125;28;20032;-82
2021/06/15 04:13:48;;;;;;;66.30;32.25;;;;;;;15.90;100.00;101992.91;5246755;28;20036;-82
2021/06/15 04:16:19;;;;;;;50.42;30.95;;;;;;;16.01;100.00;101995.25;5246604;28;20035;-82
2021/06/15 04:18:51;;;;;;;56.97;32.17;;;;;;;16.00;100.00;101994.41;5246433;28;20048;-82
2021/06/15 04:21:22;;;;;;;52.80;28.90;;;;;;;16.10;100.00;102005.03;5248121;28;20383;-82
2021/06/15 04:24:01;;;;;;;51.47;28.20;;;;;;;16.20;100.00;102021.06;5248518;28;20028;-82
2021/06/15 04:26:34;;;;;;;48.53;28.05;;;;;;;16.21;100.00;102022.75;5248886;28;20017;-82
2021/06/15 04:29:06;;;;;;;52.22;28.70;;;;;;;16.19;100.00;102022.94;5248581;28;20372;-82
2021/06/15 04:31:39;;;;;;;51.55;28.35;;;;;;;16.30;100.00;102027.97;5238904;28;20170;-82
2021/06/15 04:34:11;;;;;;;56.88;29.85;;;;;;;16.33;100.00;102036.78;5248516;28;20095;-82
2021/06/15 04:36:44;;;;;;;54.17;30.33;;;;;;;16.42;100.00;102035.72;5248728;28;20111;-82
2021/06/15 04:39:20;;;;;;;51.35;29.83;;;;;;;16.43;100.00;102032.00;5247987;28;20024;-82
2021/06/15 04:41:58;;;;;;;48.15;29.23;;;;;;;16.51;100.00;102018.38;5248294;28;20056;-82
2021/06/15 04:44:31;;;;;;;51.00;30.15;;;;;;;16.57;100.00;102017.72;5248551;28;20031;-82
2021/06/15 04:47:11;;;;;;;52.42;29.77;;;;;;;16.63;100.00;102025.13;5247851;28;20029;-82
2021/06/15 04:50:25;;;;;;;51.05;27.63;;;;;;;16.74;100.00;102029.31;5247239;28;20020;-82
2021/06/15 04:52:57;;;;;;;48.55;26.50;;;;;;;16.83;100.00;102028.25;5238669;28;20024;-83
2021/06/15 04:55:31;;;;;;;42.97;25.88;;;;;;;16.95;100.00;102021.38;5247662;28;20050;-82
2021/06/15 04:58:06;;;;;;;46.95;26.17;;;;;;;17.03;100.00;102023.22;5260718;28;20027;-82
2021/06/15 05:00:38;;;;;;;34.78;22.48;;;;;;;17.13;100.00;102012.97;5247524;28;20021;-82
2021/06/15 05:03:10;;;;;;;43.08;23.05;;;;;;;17.14;100.00;102008.38;5247843;28;20041;-82
2021/06/15 05:05:40;;;;;;;42.88;23.42;;;;;;;17.24;100.00;102009.00;5247627;28;20032;-82
2021/06/15 05:08:14;;;;;;;37.17;20.58;;;;;;;17.32;100.00;102023.34;5247627;28;20484;-82
2021/06/15 05:10:45;;;;;;;33.15;19.95;;;;;;;17.45;100.00;102024.56;5247216;28;20029;-82
2021/06/15 05:13:18;;;;;;;35.88;19.42;;;;;;;17.53;100.00;102032.66;5247691;28;20791;-82
2021/06/15 05:15:52;;;;;;;30.38;19.13;;;;;;;17.54;100.00;102032.44;5247133;28;20027;-82
2021/06/15 05:18:23;;;;;;;35.40;18.48;;;;;;;17.57;100.00;102033.94;5246976;28;20480;-82
2021/06/15 05:20:54;;;;;;;36.20;18.85;;;;;;;17.69;100.00;102032.50;5246910;28;20036;-82
2021/06/15 05:23:40;;;;;;;33.25;18.50;;;;;;;18.24;100.00;102042.13;5246364;28;20037;-82
2021/06/15 05:26:12;;;;;;;29.60;17.70;;;;;;;18.85;100.00;102047.28;5247216;28;20081;-82
2021/06/15 05:28:42;;;;;;;27.95;17.20;;;;;;;19.47;100.00;102045.81;5248610;28;20051;-82
2021/06/15 05:31:13;;;;;;;30.55;15.50;;;;;;;20.51;100.00;102043.22;5249362;28;20056;-82
2021/06/15 05:33:44;;;;;;;25.73;14.80;;;;;;;20.88;100.00;102050.91;5252993;28;20028;-81
2021/06/15 05:36:14;;;;;;;23.65;13.98;;;;;;;21.39;100.00;102058.59;5246960;28;20027;-83
2021/06/15 05:38:44;;;;;;;23.40;12.98;;;;;;;22.40;100.00;102054.72;5247125;28;20036;-83
2021/06/15 05:41:15;;;;;;;23.27;12.68;;;;;;;22.64;100.00;102062.22;5246738;28;20565;-82
2021/06/15 05:43:45;;;;;;;22.55;12.07;;;;;;;23.06;100.00;102050.84;5246212;28;20412;-82
2021/06/15 05:46:16;;;;;;;20.45;12.05;;;;;;;22.78;100.00;102051.19;5246850;28;20388;-82
2021/06/15 05:48:46;;;;;;;21.58;12.00;;;;;;;23.20;100.00;102066.97;5246199;28;20639;-82
2021/06/15 05:51:17;;;;;;;19.23;11.38;;;;;;;23.77;100.00;102064.25;5246552;28;20467;-82
2021/06/15 05:53:47;;;;;;;23.08;12.52;;;;;;;23.42;100.00;102064.72;5246560;28;20024;-83
2021/06/15 05:56:18;;;;;;;20.02;11.77;;;;;;;23.80;100.00;102071.16;5246824;28;20025;-83
2021/06/15 05:58:48;;;;;;;17.58;10.70;;;;;;;24.32;100.00;102063.47;5259813;28;20104;-83
2021/06/15 06:01:18;;;;;;;15.68;10.70;;;;;;;24.50;100.00;102069.00;5246894;28;20028;-83
2021/06/15 06:04:04;;;;;;;18.75;10.40;;;;;;;24.53;100.00;102071.25;5247815;28;20021;-82
2021/06/15 06:09:24;;;;;;;15.13;9.27;;;;;;;24.84;100.00;102075.72;5247817;28;19908;-83
2021/06/15 06:11:54;;;;;;;15.63;9.50;;;;;;;24.47;98.24;102063.97;5231426;28;20024;-83
2021/06/15 06:14:24;;;;;;;16.98;10.43;;;;;;;24.51;99.00;102067.94;5244409;28;20471;-84
2021/06/15 06:16:55;;;;;;;16.50;9.35;;;;;;;25.00;96.54;102068.75;5244353;28;20023;-83
2021/06/15 06:19:26;;;;;;;13.27;9.15;;;;;;;25.00;93.93;102071.47;5244265;28;20111;-84
2021/06/15 06:21:56;;;;;;;15.82;9.38;;;;;;;24.96;89.66;102064.81;5244396;28;20024;-83
2021/06/15 06:24:27;;;;;;;15.02;9.88;;;;;;;24.88;94.08;102076.94;5244290;28;20025;-84
2021/06/15 06:26:57;;;;;;;18.00;9.50;;;;;;;24.85;92.48;102077.41;5244043;28;20447;-83
2021/06/15 06:29:28;;;;;;;14.68;9.10;;;;;;;24.91;98.82;102084.72;5242231;28;20305;-84
2021/06/15 06:31:58;;;;;;;15.32;9.85;;;;;;;25.23;98.53;102076.25;5235001;28;20446;-84
2021/06/15 06:34:29;;;;;;;17.60;10.02;;;;;;;24.98;90.75;102085.44;5243482;28;20052;-84
2021/06/15 06:36:59;;;;;;;15.10;9.43;;;;;;;25.23;91.81;102084.50;5243900;28;20081;-84
2021/06/15 06:39:30;;;;;;;17.90;9.20;;;;;;;25.59;81.61;102078.00;5243888;28;20032;-84
2021/06/15 06:42:00;;;;;;;12.57;8.65;;;;;;;25.63;81.75;102078.38;5239701;28;20023;-84
2021/06/15 06:44:31;;;;;;;19.88;10.68;;;;;;;25.55;82.79;102088.66;5243684;28;20024;-84
2021/06/15 06:47:01;;;;;;;14.38;9.05;;;;;;;25.51;87.03;102090.19;5244011;28;20196;-85
2021/06/15 06:49:32;;;;;;;18.40;9.80;;;;;;;24.99;98.21;102081.63;5243759;28;20047;-84
2021/06/15 06:52:03;;;;;;;24.52;10.27;;;;;;;24.48;100.00;102079.34;5243937;28;20028;-85
2021/06/15 06:54:33;;;;;;;16.92;9.35;;;;;;;23.98;100.00;102087.66;5244219;28;20059;-84
2021/06/15 06:57:04;;;;;;;16.50;10.40;;;;;;;23.50;100.00;102083.63;5249071;28;20031;-84
2021/06/15 06:59:34;;;;;;;19.25;10.15;;;;;;;23.09;100.00;102083.25;5251188;28;20115;-84
2021/06/15 07:02:05;;;;;;;16.15;10.30;;;;;;;22.91;100.00;102089.47;5242613;28;20029;-84
2021/06/15 07:04:35;;;;;;;15.75;9.88;;;;;;;22.60;100.00;102096.50;5226036;28;20052;-84
2021/06/15 07:07:06;;;;;;;18.83;9.63;;;;;;;22.33;100.00;102097.63;5243462;28;20111;-84
2021/06/15 07:09:36;;;;;;;16.92;9.77;;;;;;;22.20;100.00;102093.03;5243226;28;20091;-85
2021/06/15 07:12:07;;;;;;;18.70;10.18;;;;;;;21.96;100.00;102089.88;5243783;28;20025;-84
2021/06/15 07:14:37;;;;;;;18.67;9.98;;;;;;;22.00;100.00;102094.94;5243537;28;20086;-84
2021/06/15 07:17:08;;;;;;;15.55;9.25;;;;;;;22.14;100.00;102094.75;5243573;28;20023;-84
2021/06/15 07:19:38;;;;;;;17.58;8.85;;;;;;;22.17;100.00;102098.94;5243306;28;20083;-84
2021/06/15 07:22:09;;;;;;;14.80;8.52;;;;;;;22.29;100.00;102105.44;5243253;28;20499;-84
2021/06/15 07:24:39;;;;;;;19.70;8.80;;;;;;;22.21;100.00;102098.28;5243765;28;20031;-84
2021/06/15 07:27:10;;;;;;;17.33;8.50;;;;;;;22.41;100.00;102105.59;5243351;28;20021;-84
2021/06/15 07:29:40;;;;;;;23.33;10.90;;;;;;;22.44;100.00;102106.03;5240023;28;20462;-84
2021/06/15 07:32:11;;;;;;;19.98;9.30;;;;;;;22.62;100.00;102097.13;5237401;28;20036;-84
2021/06/15 07:34:42;;;;;;;12.85;7.57;;;;;;;22.80;100.00;102099.16;5243355;28;20411;-84
2021/06/15 07:37:13;;;;;;;17.33;7.68;;;;;;;22.83;100.00;102111.56;5243085;28;20391;-85
2021/06/15 07:39:43;;;;;;;12.23;6.88;;;;;;;22.72;100.00;102105.72;5243329;28;20024;-84
2021/06/15 07:42:14;;;;;;;8.15;5.72;;;;;;;22.79;100.00;102107.56;5242751;28;20368;-83
2021/06/15 07:44:45;;;;;;;11.35;6.68;;;;;;;22.88;100.00;102107.13;5247385;28;20523;-83
2021/06/15 07:47:15;;;;;;;12.88;6.80;;;;;;;23.09;100.00;102102.41;5252563;28;20721;-83
2021/06/15 07:49:46;;;;;;;13.27;5.55;;;;;;;23.13;94.55;102103.66;5251669;28;20079;-82
2021/06/15 07:52:16;;;;;;;10.90;6.20;;;;;;;23.07;100.00;102116.31;5251681;28;20025;-82
2021/06/15 07:54:47;;;;;;;13.23;6.80;;;;;;;23.33;100.00;102111.75;5250055;28;20480;-83
2021/06/15 07:57:17;;;;;;;12.38;5.90;;;;;;;23.49;96.53;102106.59;5257589;28;20059;-83
2021/06/15 07:59:48;;;;;;;10.23;6.25;;;;;;;23.51;82.19;102100.88;5257012;28;20052;-83
2021/06/15 08:02:18;;;;;;;8.27;5.35;;;;;;;23.42;81.06;102097.56;5251578;28;20025;-83
2021/06/15 08:04:49;;;;;;;14.32;5.68;;;;;;;23.58;95.42;102103.56;5250700;28;20033;-83
2021/06/15 08:07:19;;;;;;;12.27;5.35;;;;;;;23.74;83.12;102094.81;5250355;28;20028;-83
2021/06/15 08:09:50;;;;;;;10.93;5.32;;;;;;;23.75;89.26;102091.03;5249885;28;20027;-83
2021/06/15 08:12:20;;;;;;;7.63;5.05;;;;;;;24.16;89.23;102093.16;5249288;28;20236;-83
2021/06/15 08:14:51;;;;;;;7.47;4.57;;;;;;;24.18;86.12;102090.19;5249782;28;20028;-83
2021/06/15 08:17:21;;;;;;;11.32;5.75;;;;;;;24.65;83.13;102096.00;5248611;28;20056;-83
2021/06/15 08:19:52;;;;;;;12.13;5.82;;;;;;;25.09;83.08;102089.34;5248123;28;20310;-83
2021/06/15 08:22:22;;;;;;;9.20;5.40;;;;;;;24.96;71.22;102098.59;5248590;28;20428;-83
2021/06/15 08:24:53;;;;;;;9.65;5.07;;;;;;;24.91;71.69;102090.22;5248999;28;20373;-83
2021/06/15 08:27:23;;;;;;;9.02;4.82;;;;;;;24.79;67.56;102092.03;5249238;28;20029;-83
2021/06/15 08:29:54;;;;;;;12.43;4.57;;;;;;;24.77;77.41;102096.94;5243696;28;20124;-83
2021/06/15 08:32:25;;;;;;;8.55;4.82;;;;;;;24.69;70.31;102091.75;5245132;28;20045;-83
2021/06/15 08:34:56;;;;;;;7.30;4.18;;;;;;;24.54;72.57;102100.38;5249123;28;20365;-83
2021/06/15 08:37:26;;;;;;;11.75;5.43;;;;;;;24.46;71.29;102100.69;5248975;28;20024;-83
2021/06/15 08:39:57;;;;;;;11.05;5.20;;;;;;;24.44;76.02;102098.16;5247004;28;20028;-83
2021/06/15 08:42:28;;;;;;;7.95;4.75;;;;;;;24.56;72.95;102097.41;5247456;28;20538;-83
2021/06/15 08:44:59;;;;;;;10.60;4.97;;;;;;;24.38;75.15;102087.28;5247093;28;20016;-83
2021/06/15 08:47:29;;;;;;;11.05;4.63;;;;;;;24.31;84.73;102084.59;5245969;28;20031;-83
2021/06/15 08:50:00;;;;;;;9.90;4.00;;;;;;;24.57;78.34;102097.19;5246177;28;20024;-83
2021/06/15 08:52:31;;;;;;;9.23;4.00;;;;;;;24.58;74.84;102096.09;5246100;28;20027;-83
2021/06/15 08:55:04;;;;;;;7.88;4.28;;;;;;;24.47;71.21;102091.38;5246067;28;20032;-83
2021/06/15 08:57:36;;;;;;;8.73;3.88;;;;;;;24.45;70.51;102088.88;5255466;28;20077;-83
2021/06/15 09:00:10;;;;;;;6.07;3.58;;;;;;;24.46;66.94;102086.97;5249080;28;20173;-83
2021/06/15 09:02:45;;;;;;;8.40;3.08;;;;;;;24.54;66.57;102090.22;5245917;28;20454;-83
2021/06/15 09:05:20;;;;;;;7.97;3.28;;;;;;;24.63;66.96;102093.50;5245771;28;20062;-83
2021/06/15 09:07:56;;;;;;;7.28;3.28;;;;;;;24.84;62.55;102092.19;5245693;28;20028;-83
2021/06/15 09:10:38;;;;;;;11.18;3.35;;;;;;;24.80;64.00;102086.34;5245464;28;20043;-83
2021/06/15 09:13:31;;;;;;;10.90;3.10;;;;;;;24.85;60.25;102093.88;5245601;28;20020;-83
2021/06/15 09:16:24;;;;;;;5.70;3.25;;;;;;;24.80;61.45;102091.84;5245534;28;20050;-83
2021/06/15 09:18:58;;;;;;;6.32;2.65;;;;;;;25.12;60.13;102086.13;5245335;28;20041;-83
2021/06/15 09:21:28;;;;;;;7.53;2.78;;;;;;;25.22;65.80;102080.91;5245328;28;20020;-83
2021/06/15 09:24:05;;;;;;;6.00;2.40;;;;;;;25.24;59.97;102075.19;5245389;28;20206;-83
2021/06/15 09:27:05;;;;;;;7.88;2.22;;;;;;;25.15;59.50;102076.59;5245561;28;20052;-83
2021/06/15 09:29:51;;;;;;;4.40;2.35;;;;;;;25.16;60.06;102083.78;5245291;28;20094;-84
2021/06/15 09:32:25;;;;;;;3.88;2.38;;;;;;;25.49;59.51;102077.75;5247474;28;20024;-83
2021/06/15 09:35:05;;;;;;;3.35;2.25;;;;;;;25.54;57.46;102091.63;5247599;28;20016;-83
2021/06/15 09:37:41;;;;;;;6.00;2.20;;;;;;;25.75;59.02;102090.25;5246967;28;20035;-83
2021/06/15 09:40:32;;;;;;;5.68;2.58;;;;;;;25.62;56.16;102087.72;5247338;28;20028;-83
2021/06/15 09:43:03;;;;;;;4.45;2.03;;;;;;;25.82;58.15;102082.75;5240222;28;20017;-82
2021/06/15 09:45:48;;;;;;;4.63;2.42;;;;;;;25.94;55.86;102083.56;5246059;28;20396;-84
2021/06/15 09:48:34;;;;;;;8.10;2.03;;;;;;;26.04;52.22;102085.72;5247167;28;20025;-83
2021/06/15 09:51:13;;;;;;;6.22;2.08;;;;;;;26.26;54.93;102086.78;5236065;28;20074;-83
2021/06/15 09:53:58;;;;;;;2.83;1.63;;;;;;;26.31;53.42;102097.91;5229166;28;20029;-82
2021/06/15 09:56:28;;;;;;;4.10;1.85;;;;;;;26.33;49.80;102086.66;5247336;28;20020;-83
2021/06/15 09:59:00;;;;;;;4.75;1.67;;;;;;;26.32;52.25;102085.81;5259170;28;20032;-83
2021/06/15 10:01:34;;;;;;;4.35;1.88;;;;;;;26.48;50.60;102086.19;5246642;28;20650;-83
2021/06/15 10:04:22;;;;;;;3.88;1.65;;;;;;;26.43;50.16;102086.91;5246577;28;20086;-83
2021/06/15 10:06:58;;;;;;;2.08;1.70;;;;;;;26.49;51.77;102088.69;5246545;28;20028;-82
2021/06/15 10:09:30;;;;;;;6.53;1.95;;;;;;;26.52;51.94;102085.47;5245372;28;20028;-83
2021/06/15 10:12:06;;;;;;;4.70;2.20;;;;;;;26.51;51.51;102081.03;5246852;28;20028;-83
2021/06/15 10:14:40;;;;;;;3.47;1.75;;;;;;;26.57;53.80;102084.72;5247233;28;20119;-83
2021/06/15 10:17:11;;;;;;;4.30;2.20;;;;;;;26.84;57.22;102083.06;5246759;28;20082;-83
2021/06/15 10:19:42;;;;;;;4.68;2.75;;;;;;;26.71;54.78;102079.75;5246420;28;20028;-83
2021/06/15 10:22:13;;;;;;;4.20;2.65;;;;;;;26.67;54.46;102075.84;5246882;28;20032;-83
2021/06/15 10:24:43;;;;;;;8.73;2.80;;;;;;;26.46;54.50;102077.34;5246373;28;20017;-83
2021/06/15 10:27:14;;;;;;;2.88;2.28;;;;;;;26.45;56.75;102073.72;5246620;28;20033;-83
2021/06/15 10:29:51;;;;;;;3.38;2.55;;;;;;;26.48;55.26;102078.75;5246138;28;20029;-83
2021/06/15 10:32:23;;;;;;;5.85;2.45;;;;;;;26.30;57.29;102073.38;5246645;28;20278;-83
2021/06/15 10:34:54;;;;;;;7.85;3.30;;;;;;;26.34;55.38;102082.81;5247379;28;20024;-83
2021/06/15 10:40:13;;;;;;;4.65;2.00;;;;;;;26.45;55.19;102078.41;5247675;28;20119;-83
2021/06/15 10:43:27;;;;;;;4.00;2.38;;;;;;;26.41;53.47;102072.53;5236592;28;20077;-84
2021/06/15 10:46:00;;;;;;;3.88;2.25;;;;;;;26.64;53.13;102065.31;5179948;28;20025;-83
2021/06/15 10:48:39;;;;;;;5.32;2.20;;;;;;;26.49;52.79;102069.41;5179276;28;20045;-83
2021/06/15 10:51:39;;;;;;;4.22;1.92;;;;;;;26.17;50.82;102065.41;5221739;28;20043;-83
2021/06/15 10:54:35;;;;;;;6.43;2.28;;;;;;;26.32;53.67;102051.97;5232070;28;20391;-82
2021/06/15 10:57:32;;;;;;;3.53;2.10;;;;;;;26.42;52.78;102057.72;5250082;28;20012;-82
2021/06/15 11:00:13;;;;;;;3.35;1.98;;;;;;;26.53;53.58;102062.34;5244343;28;20048;-82
2021/06/15 11:03:16;;;;;;;2.45;1.73;;;;;;;26.66;53.69;102046.63;5244138;28;20511;-83
2021/06/15 11:05:49;;;;;;;4.03;2.40;;;;;;;26.66;54.25;102057.63;5234056;28;20048;-82
2021/06/15 11:08:25;;;;;;;3.13;1.90;;;;;;;26.57;52.77;102060.78;5244155;28;20527;-82
2021/06/15 11:10:59;;;;;;;4.07;2.15;;;;;;;26.62;52.68;102048.22;5244140;28;20094;-82
2021/06/15 11:13:56;;;;;;;3.33;2.05;;;;;;;26.50;52.63;102049.06;5243965;28;20028;-82
2021/06/15 11:16:37;;;;;;;5.72;2.28;;;;;;;26.46;53.61;102047.09;5243759;28;20020;-84
2021/06/15 11:19:11;;;;;;;4.55;1.88;;;;;;;26.59;53.13;102050.38;5243557;28;20032;-84
2021/06/15 11:21:47;;;;;;;3.83;2.15;;;;;;;26.74;52.08;102047.09;5247318;28;20099;-84
2021/06/15 11:24:25;;;;;;;12.82;1.95;;;;;;;26.85;53.48;102051.69;5248116;28;20024;-84
2021/06/15 11:26:58;;;;;;;3.42;1.90;;;;;;;26.95;51.89;102045.56;5247979;28;20056;-84
2021/06/15 11:29:35;;;;;;;4.85;1.88;;;;;;;26.85;53.42;102048.13;5247686;28;20484;-84
2021/06/15 11:32:18;;;;;;;4.20;2.10;;;;;;;27.09;53.28;102046.13;5247684;28;20036;-85
2021/06/15 11:35:03;;;;;;;6.25;2.05;;;;;;;26.98;53.20;102038.72;5247772;28;20032;-85
2021/06/15 11:37:37;;;;;;;3.30;2.53;;;;;;;26.90;51.97;102042.69;5247549;28;20053;-84
2021/06/15 11:40:10;;;;;;;5.85;2.20;;;;;;;26.68;52.71;102050.00;5247298;28;20103;-84
2021/06/15 11:42:42;;;;;;;3.85;2.50;;;;;;;26.66;55.47;102047.50;5247401;28;20123;-84
2021/06/15 11:45:18;;;;;;;5.15;2.33;;;;;;;26.81;53.80;102036.78;5247440;28;20032;-84
2021/06/15 11:47:49;;;;;;;2.72;2.30;;;;;;;27.11;53.34;102035.72;5247689;28;20103;-84